Time;durP1;ratioP1;P1;durP2;ratioP2;P2;SDS_P1;SDS_P2;PMS_P1;PMS_P2;Temp;Humidity;BMP_temperature;BMP_pressure;BME280_temperature;BME280_humidity;BME280_pressure;Samples;Min_cycle;Max_cycle;Signal;HPM_P1;HPM_P2
2022/07/05 00:00:12;;;;;;;3.42;2.60;;;18.10;99.90;;;;;;6166785;29;20455;-66
2022/07/05 00:03:19;;;;;;;5.25;2.38;;;18.10;99.90;;;;;;6166649;29;20295;-66
2022/07/05 00:06:25;;;;;;;7.43;2.58;;;18.00;99.90;;;;;;6166650;28;20267;-66
2022/07/05 00:09:30;;;;;;;1.80;1.80;;;17.90;99.90;;;;;;6175880;28;20301;-66
2022/07/05 00:12:36;;;;;;;2.13;1.83;;;17.80;99.90;;;;;;6190828;28;20278;-66
2022/07/05 00:15:43;;;;;;;3.33;1.73;;;17.80;99.90;;;;;;6190211;28;20270;-67
2022/07/05 00:18:48;;;;;;;4.53;1.90;;;17.80;99.90;;;;;;6190589;28;20274;-66
2022/07/05 00:21:53;;;;;;;1.70;1.60;;;17.80;99.90;;;;;;6190101;28;20285;-66
2022/07/05 00:24:58;;;;;;;3.40;1.70;;;17.80;99.90;;;;;;6189580;28;20297;-66
2022/07/05 00:28:04;;;;;;;8.82;2.35;;;17.70;99.90;;;;;;6173047;28;20557;-66
2022/07/05 00:31:12;;;;;;;2.10;1.80;;;17.70;99.90;;;;;;6190021;28;20266;-66
2022/07/05 00:34:18;;;;;;;2.78;1.40;;;17.50;99.90;;;;;;6190232;28;20282;-66
2022/07/05 00:37:23;;;;;;;8.43;1.80;;;17.50;99.90;;;;;;6190090;28;20270;-66
2022/07/05 00:40:28;;;;;;;9.98;1.70;;;17.50;99.90;;;;;;6172931;28;20294;-66
2022/07/05 00:43:33;;;;;;;1.23;1.23;;;17.40;99.90;;;;;;6189854;28;20299;-66
2022/07/05 00:46:40;;;;;;;5.60;1.40;;;17.30;99.90;;;;;;6172650;28;20347;-66
2022/07/05 00:49:46;;;;;;;2.95;1.40;;;17.30;99.90;;;;;;6189873;28;20277;-66
2022/07/05 00:52:55;;;;;;;2.95;1.27;;;17.20;99.90;;;;;;6189748;28;20274;-66
2022/07/05 00:56:00;;;;;;;6.93;1.50;;;17.10;99.90;;;;;;6189596;28;20274;-66
2022/07/05 00:59:06;;;;;;;3.65;1.40;;;17.10;99.90;;;;;;6189192;28;20273;-66
2022/07/05 01:02:12;;;;;;;5.40;1.33;;;17.20;99.90;;;;;;6188236;28;20273;-66
2022/07/05 01:05:24;;;;;;;5.68;1.45;;;17.20;99.90;;;;;;6156827;29;20295;-66
2022/07/05 01:08:30;;;;;;;3.35;1.25;;;17.20;99.90;;;;;;6164443;28;20274;-66
2022/07/05 01:11:35;;;;;;;6.25;1.50;;;17.10;99.90;;;;;;6164458;29;20274;-66
2022/07/05 01:14:42;;;;;;;1.83;1.10;;;17.10;99.90;;;;;;6165419;29;20562;-67
2022/07/05 01:17:50;;;;;;;7.68;1.30;;;17.10;99.90;;;;;;6164092;29;20331;-67
2022/07/05 01:20:57;;;;;;;5.85;1.42;;;17.10;99.90;;;;;;6148522;29;20278;-67
2022/07/05 01:24:04;;;;;;;1.17;1.10;;;17.00;99.90;;;;;;6163967;28;20299;-67
2022/07/05 01:27:09;;;;;;;1.20;1.10;;;17.00;99.90;;;;;;6165278;29;20274;-67
2022/07/05 01:30:15;;;;;;;1.10;1.10;;;17.00;99.90;;;;;;6164779;29;20274;-67
2022/07/05 01:33:28;;;;;;;1.33;1.23;;;16.90;99.90;;;;;;6164707;28;20444;-67
2022/07/05 01:36:34;;;;;;;1.08;1.08;;;16.90;99.90;;;;;;6163983;28;20271;-67
2022/07/05 01:39:41;;;;;;;1.20;1.10;;;16.90;99.90;;;;;;6165146;28;20279;-67
2022/07/05 01:42:47;;;;;;;1.90;1.05;;;16.90;99.90;;;;;;6163930;28;20431;-67
2022/07/05 01:45:56;;;;;;;1.40;1.17;;;16.80;99.90;;;;;;6164807;29;20298;-67
2022/07/05 01:49:05;;;;;;;1.55;1.02;;;16.90;99.90;;;;;;6164721;29;20274;-67
2022/07/05 01:52:15;;;;;;;4.25;1.10;;;16.80;99.90;;;;;;6163277;29;20275;-67
2022/07/05 01:55:22;;;;;;;3.67;1.05;;;16.80;99.90;;;;;;6164209;29;20274;-67
2022/07/05 01:58:28;;;;;;;7.70;1.27;;;16.70;99.90;;;;;;6163468;29;20274;-67
2022/07/05 02:01:37;;;;;;;4.88;1.80;;;16.70;99.90;;;;;;6164624;29;20278;-67
2022/07/05 02:04:42;;;;;;;8.23;1.40;;;16.70;99.90;;;;;;6164724;28;20589;-67
2022/07/05 02:07:51;;;;;;;2.30;1.00;;;16.70;99.90;;;;;;6162920;29;20278;-67
2022/07/05 02:10:58;;;;;;;1.42;1.13;;;16.70;99.90;;;;;;6162371;29;20298;-67
2022/07/05 02:14:04;;;;;;;0.95;0.95;;;16.70;99.90;;;;;;6163043;29;20278;-67
2022/07/05 02:17:13;;;;;;;1.10;1.10;;;16.70;99.90;;;;;;6163006;29;20282;-67
2022/07/05 02:20:22;;;;;;;3.92;1.10;;;16.60;99.90;;;;;;6162996;29;20270;-67
2022/07/05 02:23:27;;;;;;;1.20;1.15;;;16.60;99.90;;;;;;6162878;29;20278;-67
2022/07/05 02:26:35;;;;;;;2.38;0.90;;;16.60;99.90;;;;;;6162657;29;20294;-67
2022/07/05 02:29:42;;;;;;;4.85;1.20;;;16.60;99.90;;;;;;6162655;29;20274;-67
2022/07/05 02:32:49;;;;;;;1.02;1.00;;;16.60;99.90;;;;;;6162816;29;20274;-67
2022/07/05 02:35:54;;;;;;;3.22;1.55;;;16.60;99.90;;;;;;6163864;28;20278;-67
2022/07/05 02:38:59;;;;;;;4.25;1.55;;;16.60;99.90;;;;;;6162538;29;20565;-67
2022/07/05 02:42:06;;;;;;;3.22;1.40;;;16.60;99.90;;;;;;6162545;29;20295;-67
2022/07/05 02:45:12;;;;;;;1.45;1.33;;;16.60;99.90;;;;;;6162481;29;20295;-67
2022/07/05 02:48:19;;;;;;;4.50;1.30;;;16.60;99.90;;;;;;6166858;29;20458;-67
2022/07/05 02:51:24;;;;;;;4.65;1.20;;;16.60;99.90;;;;;;6167533;29;20278;-67
2022/07/05 02:54:33;;;;;;;3.05;1.17;;;16.70;99.90;;;;;;6167169;29;20274;-67
2022/07/05 02:57:42;;;;;;;1.80;1.20;;;16.60;99.90;;;;;;6166856;29;20468;-67
2022/07/05 03:00:50;;;;;;;1.10;1.00;;;16.70;99.90;;;;;;6166870;29;20582;-67
2022/07/05 03:03:59;;;;;;;2.38;1.20;;;16.70;99.90;;;;;;6166591;29;20298;-67
2022/07/05 03:07:05;;;;;;;1.20;1.20;;;16.60;99.90;;;;;;6168254;29;20290;-67
2022/07/05 03:10:13;;;;;;;1.30;1.20;;;16.60;99.90;;;;;;6173453;28;20617;-67
2022/07/05 03:13:20;;;;;;;3.42;1.20;;;16.60;99.90;;;;;;6182889;28;20274;-67
2022/07/05 03:16:25;;;;;;;1.10;1.10;;;16.60;99.90;;;;;;6182125;28;20277;-67
2022/07/05 03:19:32;;;;;;;2.75;1.30;;;16.70;99.90;;;;;;6168167;28;20278;-67
2022/07/05 03:22:39;;;;;;;1.10;1.10;;;16.60;99.90;;;;;;6182575;28;20279;-67
2022/07/05 03:25:44;;;;;;;1.90;1.13;;;16.70;99.90;;;;;;6182432;28;20294;-67
2022/07/05 03:28:52;;;;;;;1.48;1.38;;;16.70;99.90;;;;;;6182486;28;20558;-67
2022/07/05 03:31:58;;;;;;;1.45;1.35;;;16.80;99.90;;;;;;6182405;28;20283;-67
2022/07/05 03:35:07;;;;;;;2.20;1.30;;;16.80;99.90;;;;;;6182114;28;20278;-66
2022/07/05 03:38:15;;;;;;;1.25;1.25;;;16.60;99.90;;;;;;6182078;28;20274;-67
2022/07/05 03:41:22;;;;;;;1.90;1.30;;;16.70;99.90;;;;;;6182193;28;20274;-67
2022/07/05 03:44:32;;;;;;;1.80;1.38;;;16.80;99.90;;;;;;6182257;28;20363;-67
2022/07/05 03:47:40;;;;;;;1.40;1.40;;;16.70;99.90;;;;;;6181784;28;20298;-67
2022/07/05 03:50:48;;;;;;;1.40;1.30;;;16.80;99.90;;;;;;6181937;28;20461;-67
2022/07/05 03:53:53;;;;;;;6.35;1.30;;;16.80;99.90;;;;;;6167640;28;20286;-66
2022/07/05 03:56:59;;;;;;;1.35;1.35;;;16.80;99.90;;;;;;6181446;28;20460;-66
2022/07/05 04:00:08;;;;;;;2.95;1.30;;;16.60;99.90;;;;;;6181047;28;20558;-66
2022/07/05 04:03:27;;;;;;;1.55;1.33;;;16.60;99.90;;;;;;6181772;28;20278;-66
2022/07/05 04:06:34;;;;;;;1.52;1.42;;;16.60;99.90;;;;;;6141615;29;20296;-66
2022/07/05 04:09:42;;;;;;;0.95;0.95;;;16.70;99.90;;;;;;6141242;29;20586;-66
2022/07/05 04:12:49;;;;;;;1.23;1.20;;;16.60;99.90;;;;;;6141907;29;20280;-66
2022/07/05 04:15:57;;;;;;;1.27;1.25;;;16.60;99.90;;;;;;6157745;28;20283;-66
2022/07/05 04:19:02;;;;;;;1.67;1.48;;;16.60;99.90;;;;;;6141460;29;20275;-66
2022/07/05 04:22:09;;;;;;;1.60;1.50;;;16.60;99.90;;;;;;6141552;29;20279;-66
2022/07/05 04:25:18;;;;;;;1.80;1.25;;;16.70;99.90;;;;;;6141568;29;20280;-66
2022/07/05 04:28:44;;;;;;;1.30;1.30;;;16.70;99.90;;;;;;6141249;29;20291;-66
2022/07/05 04:31:56;;;;;;;1.73;1.63;;;16.80;99.90;;;;;;6142539;29;20279;-66
2022/07/05 04:35:02;;;;;;;4.82;1.23;;;16.80;99.90;;;;;;6141085;29;20279;-66
2022/07/05 04:38:09;;;;;;;3.78;1.42;;;16.80;99.90;;;;;;6141018;29;20467;-66
2022/07/05 04:41:16;;;;;;;1.40;1.40;;;16.90;99.90;;;;;;6157109;28;20284;-66
2022/07/05 04:44:21;;;;;;;1.90;1.50;;;16.90;99.90;;;;;;6141567;29;20275;-66
2022/07/05 04:47:29;;;;;;;3.90;1.30;;;16.80;99.90;;;;;;6141773;29;20295;-66
2022/07/05 04:50:36;;;;;;;1.88;1.30;;;16.70;99.90;;;;;;6140999;29;20279;-66
2022/07/05 04:53:42;;;;;;;5.45;1.30;;;16.80;99.90;;;;;;6140414;29;20279;-66
2022/07/05 04:56:48;;;;;;;1.30;1.20;;;16.90;99.90;;;;;;6141358;29;20275;-66
2022/07/05 04:59:53;;;;;;;2.85;1.15;;;16.90;99.90;;;;;;6142146;29;20279;-66
2022/07/05 05:03:00;;;;;;;1.70;1.30;;;17.00;99.90;;;;;;6141498;29;20358;-66
2022/07/05 05:06:05;;;;;;;1.73;1.45;;;17.00;99.90;;;;;;6162339;29;20271;-66
2022/07/05 05:09:12;;;;;;;1.40;1.30;;;17.10;99.90;;;;;;6171790;28;20580;-66
2022/07/05 05:12:17;;;;;;;3.80;1.13;;;17.30;99.90;;;;;;6172075;28;20273;-66
2022/07/05 05:15:23;;;;;;;1.27;1.23;;;17.40;99.90;;;;;;6188859;28;20278;-66
2022/07/05 05:18:30;;;;;;;1.38;1.38;;;17.40;99.90;;;;;;6189197;28;20282;-66
2022/07/05 05:21:35;;;;;;;2.33;1.17;;;17.40;99.90;;;;;;6189025;28;20273;-66
2022/07/05 05:24:40;;;;;;;1.00;1.00;;;17.40;99.90;;;;;;6189041;28;20269;-66
2022/07/05 05:27:50;;;;;;;5.43;1.20;;;17.60;99.90;;;;;;6188928;28;20298;-66
2022/07/05 05:30:55;;;;;;;1.13;1.13;;;17.80;99.90;;;;;;6188689;28;20269;-66
2022/07/05 05:34:02;;;;;;;2.42;1.15;;;17.90;99.90;;;;;;6188262;28;20274;-66
2022/07/05 05:37:07;;;;;;;4.13;1.50;;;18.30;99.90;;;;;;6188697;28;20282;-66
2022/07/05 05:40:13;;;;;;;1.33;1.20;;;18.40;99.90;;;;;;6188616;28;20278;-66
2022/07/05 05:43:18;;;;;;;2.38;1.40;;;18.60;99.90;;;;;;6188548;28;20277;-66
2022/07/05 05:46:23;;;;;;;6.00;1.23;;;18.80;99.90;;;;;;6188598;28;20274;-66
2022/07/05 05:49:30;;;;;;;1.33;1.10;;;18.90;99.90;;;;;;6188016;28;20298;-66
2022/07/05 05:52:35;;;;;;;1.60;1.50;;;18.80;99.90;;;;;;6188301;28;20282;-66
2022/07/05 05:55:41;;;;;;;2.80;1.20;;;18.70;99.90;;;;;;6188235;28;20269;-66
2022/07/05 05:58:46;;;;;;;2.25;1.42;;;18.60;99.90;;;;;;6188363;28;20563;-67
2022/07/05 06:01:51;;;;;;;3.80;1.30;;;18.70;99.90;;;;;;6188175;28;20570;-67
2022/07/05 06:04:58;;;;;;;1.20;1.02;;;18.80;99.90;;;;;;6176682;28;20266;-66
2022/07/05 06:08:04;;;;;;;2.13;1.10;;;18.80;99.90;;;;;;6164221;29;20298;-66
2022/07/05 06:11:10;;;;;;;1.88;1.15;;;18.70;99.90;;;;;;6164844;28;20298;-67
2022/07/05 06:14:15;;;;;;;1.00;1.00;;;18.50;99.90;;;;;;6164445;28;20282;-66
2022/07/05 06:17:21;;;;;;;1.55;0.90;;;18.50;99.90;;;;;;6164365;28;20276;-66
2022/07/05 06:20:29;;;;;;;2.83;1.10;;;18.50;99.90;;;;;;6163997;28;20557;-66
2022/07/05 06:23:35;;;;;;;1.20;1.08;;;18.50;99.90;;;;;;6169091;29;20358;-66
2022/07/05 06:26:40;;;;;;;3.55;1.27;;;18.50;99.90;;;;;;6168615;29;20342;-66
2022/07/05 06:29:45;;;;;;;3.95;1.27;;;18.50;99.90;;;;;;6168762;28;20609;-67
2022/07/05 06:32:51;;;;;;;4.38;1.20;;;18.60;99.90;;;;;;6169092;29;20274;-67
2022/07/05 06:35:58;;;;;;;5.47;1.05;;;18.70;99.90;;;;;;6168846;29;20274;-67
2022/07/05 06:39:03;;;;;;;4.05;1.02;;;18.40;99.90;;;;;;6169030;28;20282;-66
2022/07/05 06:42:09;;;;;;;1.48;0.85;;;18.50;99.90;;;;;;6169053;28;20270;-66
2022/07/05 06:45:14;;;;;;;1.75;0.93;;;18.60;99.90;;;;;;6169059;29;20278;-66
2022/07/05 06:48:19;;;;;;;2.42;1.30;;;18.70;99.90;;;;;;6168839;28;20314;-66
2022/07/05 06:51:26;;;;;;;1.30;1.20;;;18.60;99.90;;;;;;6168180;29;20412;-67
2022/07/05 06:54:31;;;;;;;4.40;1.15;;;18.70;99.90;;;;;;6168399;29;20304;-67
2022/07/05 06:57:59;;;;;;;2.03;0.88;;;18.90;99.90;;;;;;6168717;28;20549;-66
2022/07/05 07:01:20;;;;;;;3.15;0.93;;;19.10;99.90;;;;;;6168027;29;20270;-67
2022/07/05 07:04:26;;;;;;;1.25;1.00;;;19.20;99.90;;;;;;6168082;29;20275;-67
2022/07/05 07:11:03;;;;;;;2.42;1.10;;;19.50;99.90;;;;;;6187195;28;20596;-67
2022/07/05 07:14:09;;;;;;;2.35;1.00;;;19.50;99.90;;;;;;6191674;28;20277;-67
2022/07/05 07:17:16;;;;;;;1.40;1.25;;;19.40;99.70;;;;;;6174899;28;20210;-67
2022/07/05 07:20:22;;;;;;;1.30;1.05;;;19.10;99.60;;;;;;6191848;28;20457;-67
2022/07/05 07:23:28;;;;;;;1.10;1.10;;;19.20;99.30;;;;;;6191367;28;20290;-67
2022/07/05 07:27:02;;;;;;;3.63;1.20;;;19.30;99.50;;;;;;6191613;28;20283;-67
2022/07/05 07:29:59;;;;;;;2.22;0.90;;;19.40;99.10;;;;;;6191490;28;20317;-67
2022/07/05 07:33:04;;;;;;;2.97;1.00;;;19.50;99.60;;;;;;6191056;28;20459;-67
2022/07/05 07:36:16;;;;;;;3.05;1.20;;;19.40;99.60;;;;;;6191492;28;20279;-67
2022/07/05 07:39:23;;;;;;;1.38;1.20;;;19.20;99.20;;;;;;6191358;28;20282;-67
2022/07/05 07:42:28;;;;;;;6.40;1.30;;;19.10;99.90;;;;;;6190984;28;20274;-67
2022/07/05 07:45:33;;;;;;;5.32;1.20;;;19.30;99.30;;;;;;6191183;28;20273;-67
2022/07/05 07:48:38;;;;;;;5.38;1.17;;;19.40;98.30;;;;;;6191217;28;20294;-67
2022/07/05 07:51:44;;;;;;;2.95;1.30;;;19.50;97.80;;;;;;6191077;28;20273;-67
2022/07/05 07:54:50;;;;;;;3.67;1.90;;;19.60;97.30;;;;;;6191410;28;20274;-67
2022/07/05 07:57:56;;;;;;;2.72;1.23;;;19.60;97.50;;;;;;6190485;28;20549;-67
2022/07/05 08:01:01;;;;;;;5.35;1.08;;;19.40;97.00;;;;;;6173716;28;20278;-67
2022/07/05 08:04:06;;;;;;;1.27;1.13;;;19.30;97.90;;;;;;6186036;28;20266;-67
2022/07/05 08:07:12;;;;;;;4.05;1.13;;;19.40;98.30;;;;;;6166812;29;20266;-67
2022/07/05 08:10:18;;;;;;;1.10;0.80;;;19.30;98.40;;;;;;6166748;28;20386;-67
2022/07/05 08:13:23;;;;;;;2.97;1.42;;;19.40;98.20;;;;;;6166471;29;20278;-68
2022/07/05 08:16:29;;;;;;;3.45;1.52;;;19.40;98.00;;;;;;6166587;29;20279;-68
2022/07/05 08:22:57;;;;;;;2.17;1.30;;;19.60;97.70;;;;;;6166560;29;20274;-68
2022/07/05 08:26:04;;;;;;;2.30;1.10;;;19.50;97.50;;;;;;6166797;28;20274;-68
2022/07/05 08:29:11;;;;;;;1.52;1.40;;;19.70;97.20;;;;;;6166654;28;20278;-68
2022/07/05 08:32:17;;;;;;;1.20;1.20;;;19.80;97.30;;;;;;6166424;28;20274;-68
2022/07/05 08:35:22;;;;;;;1.17;1.10;;;19.80;97.20;;;;;;6166312;29;20279;-68
2022/07/05 08:38:27;;;;;;;1.00;1.00;;;19.70;97.90;;;;;;6166333;29;20279;-66
2022/07/05 08:41:37;;;;;;;2.47;1.20;;;19.60;97.50;;;;;;6166237;28;20451;-66
2022/07/05 08:44:43;;;;;;;2.45;1.13;;;19.50;97.20;;;;;;6165414;28;20282;-67
2022/07/05 08:47:50;;;;;;;3.95;0.93;;;19.50;97.70;;;;;;6165868;29;20271;-67
2022/07/05 08:50:56;;;;;;;1.75;1.10;;;19.40;96.90;;;;;;6165824;29;20294;-68
2022/07/05 08:54:03;;;;;;;2.58;1.10;;;19.60;96.30;;;;;;6165670;29;20274;-67
2022/07/05 08:57:09;;;;;;;4.22;1.30;;;19.80;96.10;;;;;;6165684;29;20325;-67
2022/07/05 09:00:18;;;;;;;3.05;1.20;;;19.90;97.10;;;;;;6165546;29;20275;-68
2022/07/05 09:03:26;;;;;;;2.63;0.90;;;20.00;96.20;;;;;;6165599;28;20279;-67
2022/07/05 09:06:36;;;;;;;1.35;1.15;;;20.00;95.70;;;;;;6165632;29;20275;-67
2022/07/05 09:09:43;;;;;;;1.20;1.20;;;20.00;95.80;;;;;;6164692;29;20302;-67
2022/07/05 09:12:50;;;;;;;2.63;1.13;;;20.00;96.00;;;;;;6165373;29;20294;-67
2022/07/05 09:15:56;;;;;;;2.35;1.58;;;20.00;96.90;;;;;;6165323;29;20565;-67
2022/07/05 09:19:07;;;;;;;3.83;1.08;;;20.10;96.40;;;;;;6164285;28;20279;-67
2022/07/05 09:22:12;;;;;;;1.90;1.20;;;20.10;96.50;;;;;;6165202;28;20315;-67
2022/07/05 09:25:21;;;;;;;4.30;1.00;;;20.20;95.90;;;;;;6165100;28;20581;-67
2022/07/05 09:28:27;;;;;;;4.07;1.20;;;20.20;95.60;;;;;;6165036;29;20270;-67
2022/07/05 09:31:34;;;;;;;7.82;1.20;;;20.20;95.40;;;;;;6164791;29;20294;-67
2022/07/05 09:34:40;;;;;;;1.23;0.98;;;20.00;94.50;;;;;;6164956;29;20554;-67
2022/07/05 09:37:45;;;;;;;1.38;1.30;;;19.90;94.10;;;;;;6164513;29;20458;-67
2022/07/05 09:40:53;;;;;;;3.40;1.25;;;20.00;94.80;;;;;;6164483;29;20298;-67
2022/07/05 09:43:59;;;;;;;0.98;0.80;;;20.00;94.10;;;;;;6164283;29;20304;-67
2022/07/05 09:47:12;;;;;;;1.30;0.98;;;19.90;93.40;;;;;;6164390;28;20274;-67
2022/07/05 09:50:34;;;;;;;1.00;0.98;;;19.90;94.10;;;;;;6163947;29;20293;-67
2022/07/05 09:54:01;;;;;;;1.58;1.05;;;19.80;94.10;;;;;;6164102;29;20286;-68
2022/07/05 09:57:10;;;;;;;1.00;1.00;;;19.90;94.20;;;;;;6163700;28;20266;-68
2022/07/05 10:00:19;;;;;;;3.15;1.10;;;19.90;94.60;;;;;;6164479;29;20270;-68
2022/07/05 10:03:24;;;;;;;5.55;1.02;;;19.80;93.80;;;;;;6163870;29;20274;-68
2022/07/05 10:06:32;;;;;;;1.25;1.05;;;19.90;94.20;;;;;;6164790;28;20266;-68
2022/07/05 10:09:39;;;;;;;0.90;0.90;;;19.90;94.20;;;;;;6162677;29;20298;-68
2022/07/05 10:12:45;;;;;;;3.22;1.00;;;19.80;93.90;;;;;;6163986;29;20298;-68
2022/07/05 10:15:53;;;;;;;3.50;1.10;;;19.90;94.90;;;;;;6164063;29;20274;-68
2022/07/05 10:18:58;;;;;;;1.08;1.00;;;20.00;94.40;;;;;;6164245;28;20456;-68
2022/07/05 10:22:05;;;;;;;1.35;0.90;;;20.10;94.50;;;;;;6164196;28;20460;-68
2022/07/05 10:25:29;;;;;;;0.90;0.90;;;20.20;94.70;;;;;;6164023;28;20270;-67
2022/07/05 10:28:34;;;;;;;3.25;1.10;;;20.20;94.90;;;;;;6164123;28;20270;-68
2022/07/05 10:31:41;;;;;;;4.40;1.20;;;20.20;95.80;;;;;;6163683;28;20299;-68
2022/07/05 10:34:48;;;;;;;1.85;1.13;;;20.30;96.10;;;;;;6164046;28;20470;-68
2022/07/05 10:37:59;;;;;;;3.28;1.10;;;20.30;96.20;;;;;;6163957;28;20463;-68
2022/07/05 10:41:08;;;;;;;3.88;1.02;;;20.40;95.40;;;;;;6163847;28;20279;-68
2022/07/05 10:44:27;;;;;;;2.05;1.00;;;20.30;94.60;;;;;;6163986;28;20274;-68
2022/07/05 10:47:33;;;;;;;4.47;1.00;;;20.30;94.10;;;;;;6163414;28;20294;-68
2022/07/05 10:50:45;;;;;;;1.00;1.00;;;20.40;94.80;;;;;;6164001;28;20274;-68
2022/07/05 10:54:05;;;;;;;3.17;1.40;;;20.40;95.00;;;;;;6163655;28;20279;-68
2022/07/05 10:57:23;;;;;;;1.02;0.98;;;20.60;94.60;;;;;;6163026;28;20274;-68
2022/07/05 11:00:29;;;;;;;1.15;0.93;;;20.70;94.90;;;;;;6163897;29;20274;-68
2022/07/05 11:03:36;;;;;;;4.43;1.23;;;20.80;95.50;;;;;;6163868;28;20283;-68
2022/07/05 11:06:44;;;;;;;1.75;0.90;;;20.80;95.80;;;;;;6163583;28;20437;-68
2022/07/05 11:10:02;;;;;;;3.03;1.25;;;20.60;95.50;;;;;;6167820;29;20440;-68
2022/07/05 11:13:36;;;;;;;3.42;1.38;;;20.50;95.90;;;;;;6168100;29;20293;-68
2022/07/05 11:16:42;;;;;;;3.15;1.15;;;20.40;97.00;;;;;;6167722;29;20274;-68
2022/07/05 11:20:14;;;;;;;2.63;1.08;;;20.40;96.70;;;;;;6167640;29;20279;-68
2022/07/05 11:23:28;;;;;;;1.60;1.13;;;20.60;96.60;;;;;;6167399;29;20278;-68
2022/07/05 11:26:34;;;;;;;1.17;1.13;;;20.50;95.90;;;;;;6167797;28;20271;-68
2022/07/05 11:29:43;;;;;;;3.50;1.70;;;20.40;95.60;;;;;;6167308;29;20274;-68
2022/07/05 11:32:48;;;;;;;1.65;1.10;;;20.40;97.00;;;;;;6167702;29;20483;-68
2022/07/05 11:35:56;;;;;;;1.40;1.30;;;20.60;95.20;;;;;;6166748;28;20275;-68
2022/07/05 11:39:15;;;;;;;0.90;0.90;;;20.70;94.40;;;;;;6167593;29;20322;-67
2022/07/05 11:42:22;;;;;;;3.35;1.20;;;20.60;93.60;;;;;;6167625;29;20278;-67
2022/07/05 11:45:27;;;;;;;1.77;1.10;;;20.60;94.70;;;;;;6167302;29;20273;-67
2022/07/05 11:48:32;;;;;;;3.40;1.30;;;20.50;93.90;;;;;;6167134;29;20270;-67
2022/07/05 11:51:39;;;;;;;1.25;1.15;;;20.60;94.10;;;;;;6167539;28;20271;-67
2022/07/05 11:54:44;;;;;;;2.58;1.35;;;20.70;94.10;;;;;;6167439;29;20275;-67
2022/07/05 11:57:52;;;;;;;4.00;1.00;;;20.70;93.50;;;;;;6167071;29;20278;-67
2022/07/05 12:00:57;;;;;;;1.38;1.20;;;20.80;93.00;;;;;;6167027;29;20278;-67
2022/07/05 12:04:03;;;;;;;3.33;1.30;;;20.80;92.60;;;;;;6166658;29;20438;-67
2022/07/05 12:07:12;;;;;;;3.67;1.10;;;20.90;91.90;;;;;;6166915;29;20274;-67
2022/07/05 12:14:00;;;;;;;1.77;1.25;;;21.00;92.80;;;;;;6190603;28;20313;-67
2022/07/05 12:17:14;;;;;;;1.15;1.10;;;20.80;92.40;;;;;;6190595;28;20274;-67
2022/07/05 12:20:27;;;;;;;1.40;1.30;;;21.00;92.90;;;;;;6189176;28;20274;-67
2022/07/05 12:23:33;;;;;;;2.20;1.23;;;21.10;92.30;;;;;;6189849;28;20569;-68
2022/07/05 12:26:38;;;;;;;1.33;1.20;;;21.20;92.60;;;;;;6190510;28;20549;-68
2022/07/05 12:29:44;;;;;;;1.05;1.00;;;21.30;92.40;;;;;;6190234;28;20278;-68
2022/07/05 12:32:58;;;;;;;5.28;1.02;;;21.40;92.70;;;;;;6189763;28;20596;-68
2022/07/05 12:36:04;;;;;;;3.00;1.00;;;21.40;92.80;;;;;;6172514;28;20274;-68
2022/07/05 12:39:10;;;;;;;1.15;0.98;;;21.20;94.30;;;;;;6189533;28;20278;-68
2022/07/05 12:42:32;;;;;;;2.30;1.08;;;20.80;95.50;;;;;;6190346;28;20277;-68
2022/07/05 12:45:39;;;;;;;1.40;1.10;;;20.60;96.70;;;;;;6190022;28;20454;-68
2022/07/05 12:48:45;;;;;;;2.80;1.10;;;20.70;97.00;;;;;;6189442;28;20454;-68
2022/07/05 12:51:50;;;;;;;0.90;0.90;;;20.60;96.90;;;;;;6189345;28;20335;-68
2022/07/05 12:58:47;;;;;;;1.50;0.82;;;20.50;97.70;;;;;;6189459;28;20269;-68
2022/07/05 13:01:52;;;;;;;1.15;0.95;;;20.30;96.60;;;;;;6189170;28;20269;-68
2022/07/05 13:04:58;;;;;;;1.85;0.80;;;20.30;96.90;;;;;;6177844;28;20266;-68
2022/07/05 13:08:05;;;;;;;1.67;1.10;;;20.50;96.80;;;;;;6165234;29;20274;-68
2022/07/05 13:11:13;;;;;;;2.05;0.90;;;20.60;96.90;;;;;;6164875;29;20302;-68
2022/07/05 13:14:18;;;;;;;1.48;1.05;;;20.70;97.30;;;;;;6165470;28;20349;-68
2022/07/05 13:17:24;;;;;;;2.53;1.02;;;20.60;96.20;;;;;;6165371;28;20290;-68
2022/07/05 13:20:30;;;;;;;3.22;1.30;;;20.60;96.80;;;;;;6165129;29;20270;-68
2022/07/05 13:23:35;;;;;;;1.00;1.00;;;20.90;96.10;;;;;;6165307;28;20278;-68
2022/07/05 13:26:42;;;;;;;0.98;0.98;;;21.10;95.00;;;;;;6165315;28;20274;-68
2022/07/05 13:29:49;;;;;;;1.60;1.30;;;21.20;94.20;;;;;;6164334;28;20273;-68
2022/07/05 13:32:54;;;;;;;1.33;1.23;;;21.20;94.10;;;;;;6165060;28;20274;-68
2022/07/05 13:35:59;;;;;;;3.25;1.20;;;21.30;93.60;;;;;;6165125;28;20274;-68
2022/07/05 13:39:04;;;;;;;3.38;1.15;;;21.30;93.40;;;;;;6164451;29;20276;-68
2022/07/05 13:42:13;;;;;;;2.90;1.30;;;21.30;94.60;;;;;;6165099;28;20563;-68
2022/07/05 13:45:18;;;;;;;1.02;1.00;;;21.40;94.40;;;;;;6164800;29;20282;-68
2022/07/05 13:48:24;;;;;;;1.20;1.10;;;21.50;94.30;;;;;;6164642;29;20274;-68
2022/07/05 13:51:30;;;;;;;1.90;0.90;;;21.50;94.50;;;;;;6164189;29;20274;-68
2022/07/05 13:54:35;;;;;;;2.55;1.88;;;21.80;94.00;;;;;;6164751;28;20294;-68
2022/07/05 13:57:43;;;;;;;5.10;3.30;;;23.00;93.50;;;;;;6164531;29;20274;-68
2022/07/05 14:00:48;;;;;;;2.42;2.33;;;24.00;92.90;;;;;;6164363;28;20274;-68
2022/07/05 14:03:54;;;;;;;1.20;1.00;;;24.30;91.30;;;;;;6164132;29;20270;-68
2022/07/05 14:06:59;;;;;;;4.70;1.30;;;23.80;91.60;;;;;;6164423;28;20467;-68
2022/07/05 14:10:06;;;;;;;4.72;1.30;;;24.10;91.80;;;;;;6175421;28;20302;-68
2022/07/05 14:13:13;;;;;;;2.80;1.40;;;24.90;90.20;;;;;;6187798;28;20269;-68
2022/07/05 14:16:18;;;;;;;0.80;0.80;;;25.00;89.50;;;;;;6188094;28;20294;-68
2022/07/05 14:19:24;;;;;;;0.88;0.88;;;25.40;87.60;;;;;;6188081;28;20573;-67
2022/07/05 14:22:29;;;;;;;1.17;0.98;;;24.60;85.50;;;;;;6187905;28;20273;-67
2022/07/05 14:25:34;;;;;;;2.85;1.00;;;24.10;87.40;;;;;;6188092;28;20560;-67
2022/07/05 14:28:41;;;;;;;2.40;1.13;;;23.60;88.90;;;;;;6188159;28;20278;-67
2022/07/05 14:31:46;;;;;;;2.15;0.70;;;23.20;88.50;;;;;;6187555;28;20589;-67
2022/07/05 14:34:51;;;;;;;2.63;0.85;;;23.00;88.30;;;;;;6187458;28;20297;-67
2022/07/05 14:37:57;;;;;;;0.95;0.88;;;22.90;90.10;;;;;;6187683;28;20274;-67
2022/07/05 14:41:02;;;;;;;0.85;0.85;;;22.70;90.80;;;;;;6187828;28;20274;-67
2022/07/05 14:44:09;;;;;;;1.63;1.42;;;22.70;90.30;;;;;;6191290;28;20278;-67
2022/07/05 14:47:14;;;;;;;3.22;1.13;;;22.80;90.80;;;;;;6192424;28;20278;-67
2022/07/05 14:50:19;;;;;;;2.05;1.13;;;22.70;91.40;;;;;;6192450;28;20273;-67
2022/07/05 14:53:25;;;;;;;3.22;1.13;;;22.60;91.50;;;;;;6191886;28;20277;-67
2022/07/05 14:56:30;;;;;;;2.33;1.10;;;22.30;92.20;;;;;;6191877;28;20298;-67
2022/07/05 14:59:36;;;;;;;0.90;0.90;;;23.30;91.60;;;;;;6191717;28;20553;-67
2022/07/05 15:02:43;;;;;;;2.13;0.90;;;23.20;91.70;;;;;;6191951;28;20273;-67
2022/07/05 15:05:48;;;;;;;1.05;1.05;;;23.30;92.60;;;;;;6173694;28;20271;-67
2022/07/05 15:08:53;;;;;;;1.05;1.00;;;23.50;92.70;;;;;;6167721;28;20279;-67
2022/07/05 15:12:03;;;;;;;3.58;1.42;;;23.50;92.30;;;;;;6168256;29;20278;-67
2022/07/05 15:15:11;;;;;;;1.35;1.33;;;23.10;91.70;;;;;;6167674;29;20306;-67
2022/07/05 15:18:17;;;;;;;3.35;1.10;;;23.10;92.50;;;;;;6168068;28;20271;-67
2022/07/05 15:21:22;;;;;;;2.63;1.00;;;22.90;92.80;;;;;;6167961;29;20578;-67
2022/07/05 15:24:27;;;;;;;1.10;1.10;;;23.30;92.10;;;;;;6166756;28;20279;-67
2022/07/05 15:27:33;;;;;;;1.40;0.98;;;23.00;92.30;;;;;;6167897;28;20278;-67
2022/07/05 15:30:40;;;;;;;2.58;1.10;;;24.20;89.90;;;;;;6167945;28;20274;-67
2022/07/05 15:33:45;;;;;;;0.80;0.80;;;24.80;87.50;;;;;;6167767;29;20307;-67
2022/07/05 15:36:51;;;;;;;1.55;0.82;;;24.30;85.00;;;;;;6167538;28;20294;-67
2022/07/05 15:39:57;;;;;;;2.17;0.85;;;24.30;83.50;;;;;;6167198;29;20271;-67
2022/07/05 15:43:03;;;;;;;0.77;0.77;;;24.90;80.70;;;;;;6167545;29;20278;-67
2022/07/05 15:46:10;;;;;;;5.10;0.88;;;24.80;80.30;;;;;;6167335;29;20275;-67
2022/07/05 15:49:15;;;;;;;0.70;0.70;;;24.50;81.80;;;;;;6167243;29;20274;-68
2022/07/05 15:52:21;;;;;;;0.70;0.70;;;24.00;81.20;;;;;;6166955;29;20294;-68
2022/07/05 15:55:27;;;;;;;1.95;0.77;;;23.80;82.10;;;;;;6165555;28;20290;-68
2022/07/05 15:58:33;;;;;;;1.60;0.60;;;23.40;82.70;;;;;;6166653;29;20274;-68
2022/07/05 16:01:40;;;;;;;1.33;0.85;;;23.20;85.10;;;;;;6166635;29;20507;-68
2022/07/05 16:04:45;;;;;;;0.88;0.88;;;23.10;87.60;;;;;;6166487;29;20272;-68
2022/07/05 16:07:50;;;;;;;3.53;0.95;;;23.10;88.20;;;;;;6166691;29;20274;-68
2022/07/05 16:10:56;;;;;;;0.82;0.80;;;23.00;87.20;;;;;;6184527;28;20588;-68
2022/07/05 16:14:01;;;;;;;1.00;0.70;;;23.00;87.30;;;;;;6190171;28;20270;-68
2022/07/05 16:17:08;;;;;;;1.13;1.10;;;22.90;88.30;;;;;;6190351;28;20469;-68
2022/07/05 16:20:13;;;;;;;2.08;1.00;;;22.80;89.10;;;;;;6172843;28;20274;-69
2022/07/05 16:23:18;;;;;;;1.10;1.10;;;22.70;86.40;;;;;;6190404;28;20274;-68
2022/07/05 16:26:24;;;;;;;0.80;0.80;;;22.60;87.50;;;;;;6190372;28;20282;-69
2022/07/05 16:29:30;;;;;;;7.32;1.23;;;22.70;88.80;;;;;;6189694;28;20270;-68